sensor_id;sensor_type;location;lat;lon;timestamp;pressure;altitude;pressure_sealevel;temperature;humidity
28927;BME280;16038;47.692;9.400;2023-01-30T00:00:52;97413.19;;;-3.46;100.00
28927;BME280;16038;47.692;9.400;2023-01-30T00:03:18;97402.78;;;-3.42;100.00
28927;BME280;16038;47.692;9.400;2023-01-30T00:05:43;97403.50;;;-3.52;100.00
28927;BME280;16038;47.692;9.400;2023-01-30T00:08:09;97389.03;;;-3.56;100.00
28927;BME280;16038;47.692;9.400;2023-01-30T00:10:34;97389.25;;;-3.62;100.00
28927;BME280;16038;47.692;9.400;2023-01-30T00:12:59;97385.81;;;-3.58;100.00
28927;BME280;16038;47.692;9.400;2023-01-30T00:15:24;97386.03;;;-3.65;100.00
28927;BME280;16038;47.692;9.400;2023-01-30T00:17:50;97383.56;;;-3.71;100.00
28927;BME280;16038;47.692;9.400;2023-01-30T00:20:15;97380.59;;;-3.75;100.00
28927;BME280;16038;47.692;9.400;2023-01-30T00:22:40;97380.56;;;-3.80;100.00
28927;BME280;16038;47.692;9.400;2023-01-30T00:25:06;97372.50;;;-3.85;100.00
28927;BME280;16038;47.692;9.400;2023-01-30T00:27:31;97368.16;;;-3.91;100.00
28927;BME280;16038;47.692;9.400;2023-01-30T00:29:56;97366.47;;;-4.03;100.00
28927;BME280;16038;47.692;9.400;2023-01-30T00:32:22;97365.44;;;-3.96;100.00
28927;BME280;16038;47.692;9.400;2023-01-30T00:34:50;97363.00;;;-4.03;100.00
28927;BME280;16038;47.692;9.400;2023-01-30T00:37:15;97365.25;;;-3.90;100.00
28927;BME280;16038;47.692;9.400;2023-01-30T00:39:40;97367.03;;;-4.00;100.00
28927;BME280;16038;47.692;9.400;2023-01-30T00:42:06;97367.25;;;-4.07;100.00
28927;BME280;16038;47.692;9.400;2023-01-30T00:44:49;97365.84;;;-4.15;100.00
28927;BME280;16038;47.692;9.400;2023-01-30T00:47:33;97365.63;;;-4.08;100.00
28927;BME280;16038;47.692;9.400;2023-01-30T00:49:59;97358.38;;;-4.13;100.00
28927;BME280;16038;47.692;9.400;2023-01-30T00:52:24;97349.69;;;-3.93;100.00
28927;BME280;16038;47.692;9.400;2023-01-30T00:54:49;97343.63;;;-3.83;100.00
28927;BME280;16038;47.692;9.400;2023-01-30T00:57:16;97341.03;;;-3.62;100.00
28927;BME280;16038;47.692;9.400;2023-01-30T00:59:41;97335.72;;;-3.57;100.00
28927;BME280;16038;47.692;9.400;2023-01-30T01:02:06;97343.19;;;-3.65;100.00
28927;BME280;16038;47.692;9.400;2023-01-30T01:04:32;97346.03;;;-3.76;100.00
28927;BME280;16038;47.692;9.400;2023-01-30T01:07:07;97352.44;;;-3.82;100.00
28927;BME280;16038;47.692;9.400;2023-01-30T01:09:32;97342.34;;;-3.70;100.00
28927;BME280;16038;47.692;9.400;2023-01-30T01:11:57;97336.75;;;-3.69;100.00
28927;BME280;16038;47.692;9.400;2023-01-30T01:14:23;97333.19;;;-3.79;100.00
28927;BME280;16038;47.692;9.400;2023-01-30T01:16:48;97340.47;;;-3.70;100.00
28927;BME280;16038;47.692;9.400;2023-01-30T01:19:13;97334.41;;;-3.50;100.00
28927;BME280;16038;47.692;9.400;2023-01-30T01:21:38;97326.34;;;-3.55;100.00
28927;BME280;16038;47.692;9.400;2023-01-30T01:24:04;97333.59;;;-3.55;100.00
28927;BME280;16038;47.692;9.400;2023-01-30T01:26:29;97328.84;;;-3.43;100.00
28927;BME280;16038;47.692;9.400;2023-01-30T01:28:55;97328.31;;;-3.40;100.00
28927;BME280;16038;47.692;9.400;2023-01-30T01:31:21;97326.50;;;-3.29;100.00
28927;BME280;16038;47.692;9.400;2023-01-30T01:33:48;97325.66;;;-3.30;100.00
28927;BME280;16038;47.692;9.400;2023-01-30T01:36:13;97320.28;;;-3.40;100.00
28927;BME280;16038;47.692;9.400;2023-01-30T01:38:40;97323.25;;;-3.36;100.00
28927;BME280;16038;47.692;9.400;2023-01-30T01:41:05;97309.03;;;-3.37;100.00
28927;BME280;16038;47.692;9.400;2023-01-30T01:43:32;97306.63;;;-3.33;100.00
28927;BME280;16038;47.692;9.400;2023-01-30T01:50:59;97301.50;;;-3.45;100.00
28927;BME280;16038;47.692;9.400;2023-01-30T01:53:28;97300.72;;;-3.46;100.00
28927;BME280;16038;47.692;9.400;2023-01-30T01:55:55;97300.91;;;-3.57;100.00
28927;BME280;16038;47.692;9.400;2023-01-30T01:58:29;97303.81;;;-3.64;100.00
28927;BME280;16038;47.692;9.400;2023-01-30T02:00:57;97303.78;;;-3.69;100.00
28927;BME280;16038;47.692;9.400;2023-01-30T02:03:24;97312.31;;;-3.77;100.00
28927;BME280;16038;47.692;9.400;2023-01-30T02:05:51;97316.88;;;-3.78;100.00
28927;BME280;16038;47.692;9.400;2023-01-30T02:13:11;97310.00;;;-3.58;100.00
28927;BME280;16038;47.692;9.400;2023-01-30T02:15:36;97308.38;;;-3.65;100.00
28927;BME280;16038;47.692;9.400;2023-01-30T02:18:01;97321.19;;;-3.72;100.00
28927;BME280;16038;47.692;9.400;2023-01-30T02:30:56;97295.34;;;-3.51;100.00
28927;BME280;16038;47.692;9.400;2023-01-30T02:44:16;97310.16;;;-3.80;100.00
28927;BME280;16038;47.692;9.400;2023-01-30T02:46:53;97326.72;;;-3.89;100.00
28927;BME280;16038;47.692;9.400;2023-01-30T02:51:52;97341.66;;;-3.93;100.00
28927;BME280;16038;47.692;9.400;2023-01-30T02:54:18;97344.06;;;-3.91;100.00
28927;BME280;16038;47.692;9.400;2023-01-30T02:59:09;97351.94;;;-4.17;100.00
28927;BME280;16038;47.692;9.400;2023-01-30T03:14:25;97347.38;;;-4.16;100.00
28927;BME280;16038;47.692;9.400;2023-01-30T03:16:53;97351.78;;;-4.32;100.00
28927;BME280;16038;47.692;9.400;2023-01-30T03:19:20;97364.56;;;-4.39;100.00
28927;BME280;16038;47.692;9.400;2023-01-30T03:21:46;97364.00;;;-4.42;100.00
28927;BME280;16038;47.692;9.400;2023-01-30T03:24:12;97369.41;;;-4.36;100.00
28927;BME280;16038;47.692;9.400;2023-01-30T03:26:45;97381.66;;;-4.13;100.00
28927;BME280;16038;47.692;9.400;2023-01-30T03:29:12;97390.34;;;-4.28;100.00
28927;BME280;16038;47.692;9.400;2023-01-30T03:31:38;97392.94;;;-4.38;100.00
28927;BME280;16038;47.692;9.400;2023-01-30T03:34:03;97380.50;;;-4.23;100.00
28927;BME280;16038;47.692;9.400;2023-01-30T03:36:28;97358.75;;;-3.99;100.00
28927;BME280;16038;47.692;9.400;2023-01-30T03:38:53;97352.31;;;-3.60;100.00
28927;BME280;16038;47.692;9.400;2023-01-30T03:41:19;97355.25;;;-3.57;100.00
28927;BME280;16038;47.692;9.400;2023-01-30T03:43:44;97358.97;;;-3.68;100.00
28927;BME280;16038;47.692;9.400;2023-01-30T03:46:09;97370.53;;;-3.57;100.00
28927;BME280;16038;47.692;9.400;2023-01-30T03:48:35;97374.25;;;-3.58;100.00
28927;BME280;16038;47.692;9.400;2023-01-30T03:51:00;97367.59;;;-3.56;100.00
28927;BME280;16038;47.692;9.400;2023-01-30T03:53:25;97364.22;;;-3.36;100.00
28927;BME280;16038;47.692;9.400;2023-01-30T03:55:50;97359.97;;;-3.27;100.00
28927;BME280;16038;47.692;9.400;2023-01-30T03:58:16;97350.91;;;-3.15;100.00
28927;BME280;16038;47.692;9.400;2023-01-30T04:00:41;97372.34;;;-3.20;100.00
28927;BME280;16038;47.692;9.400;2023-01-30T04:03:06;97372.13;;;-3.03;100.00
28927;BME280;16038;47.692;9.400;2023-01-30T04:05:32;97361.22;;;-2.81;100.00
28927;BME280;16038;47.692;9.400;2023-01-30T04:07:57;97369.03;;;-2.75;100.00
28927;BME280;16038;47.692;9.400;2023-01-30T04:10:23;97342.78;;;-2.57;100.00
28927;BME280;16038;47.692;9.400;2023-01-30T04:12:49;97324.25;;;-2.48;100.00
28927;BME280;16038;47.692;9.400;2023-01-30T04:15:14;97379.78;;;-2.64;100.00
28927;BME280;16038;47.692;9.400;2023-01-30T04:17:41;97392.38;;;-2.70;100.00
28927;BME280;16038;47.692;9.400;2023-01-30T04:20:06;97379.78;;;-2.54;100.00
28927;BME280;16038;47.692;9.400;2023-01-30T04:22:32;97394.78;;;-2.63;100.00
28927;BME280;16038;47.692;9.400;2023-01-30T04:24:57;97391.84;;;-2.62;100.00
28927;BME280;16038;47.692;9.400;2023-01-30T04:27:22;97384.59;;;-2.66;100.00
28927;BME280;16038;47.692;9.400;2023-01-30T04:29:48;97393.72;;;-2.62;100.00
28927;BME280;16038;47.692;9.400;2023-01-30T04:32:13;97396.44;;;-2.57;100.00
28927;BME280;16038;47.692;9.400;2023-01-30T04:34:38;97394.00;;;-2.64;100.00
28927;BME280;16038;47.692;9.400;2023-01-30T04:37:04;97366.34;;;-2.59;100.00
28927;BME280;16038;47.692;9.400;2023-01-30T04:39:29;97357.53;;;-2.50;100.00
28927;BME280;16038;47.692;9.400;2023-01-30T04:41:54;97332.84;;;-2.57;100.00
28927;BME280;16038;47.692;9.400;2023-01-30T04:44:19;97313.81;;;-2.50;100.00
28927;BME280;16038;47.692;9.400;2023-01-30T04:46:45;97293.16;;;-2.44;100.00
28927;BME280;16038;47.692;9.400;2023-01-30T04:49:10;97283.22;;;-2.54;100.00
28927;BME280;16038;47.692;9.400;2023-01-30T04:51:35;97288.59;;;-2.54;100.00
28927;BME280;16038;47.692;9.400;2023-01-30T04:54:01;97285.91;;;-2.59;100.00
28927;BME280;16038;47.692;9.400;2023-01-30T04:56:26;97296.63;;;-2.59;100.00
28927;BME280;16038;47.692;9.400;2023-01-30T04:58:52;97307.91;;;-2.62;100.00
28927;BME280;16038;47.692;9.400;2023-01-30T05:01:50;97306.56;;;-2.70;100.00
28927;BME280;16038;47.692;9.400;2023-01-30T05:04:09;97301.75;;;-2.68;100.00
28927;BME280;16038;47.692;9.400;2023-01-30T05:06:34;97295.03;;;-2.45;100.00
28927;BME280;16038;47.692;9.400;2023-01-30T05:09:00;97312.75;;;-2.64;100.00
28927;BME280;16038;47.692;9.400;2023-01-30T05:11:26;97325.31;;;-2.65;100.00
28927;BME280;16038;47.692;9.400;2023-01-30T05:13:52;97331.50;;;-2.59;100.00
28927;BME280;16038;47.692;9.400;2023-01-30T05:16:18;97324.25;;;-2.64;100.00
28927;BME280;16038;47.692;9.400;2023-01-30T05:18:44;97312.72;;;-2.70;100.00
28927;BME280;16038;47.692;9.400;2023-01-30T05:23:40;97307.06;;;-2.78;100.00
28927;BME280;16038;47.692;9.400;2023-01-30T05:26:06;97317.50;;;-2.87;100.00
28927;BME280;16038;47.692;9.400;2023-01-30T05:28:32;97313.78;;;-2.71;100.00
28927;BME280;16038;47.692;9.400;2023-01-30T05:31:04;97305.75;;;-2.71;100.00
28927;BME280;16038;47.692;9.400;2023-01-30T05:33:31;97313.00;;;-2.66;100.00
28927;BME280;16038;47.692;9.400;2023-01-30T05:35:56;97294.47;;;-2.73;100.00
28927;BME280;16038;47.692;9.400;2023-01-30T05:38:22;97296.09;;;-2.77;100.00
28927;BME280;16038;47.692;9.400;2023-01-30T05:40:56;97295.56;;;-2.79;100.00
28927;BME280;16038;47.692;9.400;2023-01-30T05:43:21;97296.63;;;-2.75;100.00
28927;BME280;16038;47.692;9.400;2023-01-30T05:45:51;97283.75;;;-2.73;100.00
28927;BME280;16038;47.692;9.400;2023-01-30T05:48:16;97275.97;;;-2.74;100.00
28927;BME280;16038;47.692;9.400;2023-01-30T05:50:41;97296.63;;;-2.70;100.00
28927;BME280;16038;47.692;9.400;2023-01-30T05:53:07;97296.88;;;-2.76;100.00
28927;BME280;16038;47.692;9.400;2023-01-30T05:55:32;97304.66;;;-2.80;100.00
28927;BME280;16038;47.692;9.400;2023-01-30T05:57:58;97295.53;;;-2.84;100.00
28927;BME280;16038;47.692;9.400;2023-01-30T06:00:23;97304.38;;;-2.89;100.00
28927;BME280;16038;47.692;9.400;2023-01-30T06:02:48;97299.03;;;-2.83;100.00
28927;BME280;16038;47.692;9.400;2023-01-30T06:05:13;97300.38;;;-2.86;100.00
28927;BME280;16038;47.692;9.400;2023-01-30T06:07:39;97307.31;;;-2.90;100.00
28927;BME280;16038;47.692;9.400;2023-01-30T06:10:04;97306.50;;;-2.91;100.00
28927;BME280;16038;47.692;9.400;2023-01-30T06:12:29;97292.00;;;-3.00;100.00
28927;BME280;16038;47.692;9.400;2023-01-30T06:14:55;97296.59;;;-2.95;100.00
28927;BME280;16038;47.692;9.400;2023-01-30T06:17:20;97286.94;;;-2.96;100.00
28927;BME280;16038;47.692;9.400;2023-01-30T06:19:46;97291.47;;;-3.02;100.00
28927;BME280;16038;47.692;9.400;2023-01-30T06:22:11;97285.03;;;-3.01;100.00
28927;BME280;16038;47.692;9.400;2023-01-30T06:24:36;97283.47;;;-2.97;100.00
28927;BME280;16038;47.692;9.400;2023-01-30T06:27:02;97294.72;;;-2.95;100.00
28927;BME280;16038;47.692;9.400;2023-01-30T06:29:27;97293.63;;;-2.99;100.00
28927;BME280;16038;47.692;9.400;2023-01-30T06:31:52;97283.47;;;-2.97;100.00
28927;BME280;16038;47.692;9.400;2023-01-30T06:34:17;97284.75;;;-3.15;100.00
28927;BME280;16038;47.692;9.400;2023-01-30T06:36:43;97285.84;;;-3.05;100.00
28927;BME280;16038;47.692;9.400;2023-01-30T06:39:08;97294.66;;;-3.10;100.00
28927;BME280;16038;47.692;9.400;2023-01-30T06:41:33;97301.66;;;-3.04;100.00
28927;BME280;16038;47.692;9.400;2023-01-30T06:43:58;97300.56;;;-3.03;100.00
28927;BME280;16038;47.692;9.400;2023-01-30T06:46:24;97311.84;;;-3.06;100.00
28927;BME280;16038;47.692;9.400;2023-01-30T06:48:49;97312.09;;;-3.13;100.00
28927;BME280;16038;47.692;9.400;2023-01-30T06:51:15;97307.81;;;-3.03;100.00
28927;BME280;16038;47.692;9.400;2023-01-30T06:53:40;97318.31;;;-2.86;100.00
28927;BME280;16038;47.692;9.400;2023-01-30T06:56:05;97344.03;;;-2.91;100.00
28927;BME280;16038;47.692;9.400;2023-01-30T06:58:31;97333.09;;;-2.74;100.00
28927;BME280;16038;47.692;9.400;2023-01-30T07:00:56;97339.03;;;-2.66;100.00
28927;BME280;16038;47.692;9.400;2023-01-30T07:03:21;97349.69;;;-2.82;100.00
28927;BME280;16038;47.692;9.400;2023-01-30T07:05:46;97340.56;;;-2.86;100.00
28927;BME280;16038;47.692;9.400;2023-01-30T07:08:12;97355.84;;;-2.86;100.00
28927;BME280;16038;47.692;9.400;2023-01-30T07:10:38;97366.06;;;-2.78;100.00
28927;BME280;16038;47.692;9.400;2023-01-30T07:13:04;97364.22;;;-2.67;100.00
28927;BME280;16038;47.692;9.400;2023-01-30T07:15:29;97371.19;;;-2.56;100.00
28927;BME280;16038;47.692;9.400;2023-01-30T07:17:55;97365.31;;;-2.58;100.00
28927;BME280;16038;47.692;9.400;2023-01-30T07:20:20;97360.50;;;-2.51;100.00
28927;BME280;16038;47.692;9.400;2023-01-30T07:22:54;97361.28;;;-2.66;100.00
28927;BME280;16038;47.692;9.400;2023-01-30T07:25:20;97369.03;;;-2.70;100.00
28927;BME280;16038;47.692;9.400;2023-01-30T07:27:52;97377.38;;;-2.61;100.00
28927;BME280;16038;47.692;9.400;2023-01-30T07:30:17;97383.56;;;-2.55;100.00
28927;BME280;16038;47.692;9.400;2023-01-30T07:32:43;97388.66;;;-2.43;100.00
28927;BME280;16038;47.692;9.400;2023-01-30T07:35:08;97390.50;;;-2.54;100.00
28927;BME280;16038;47.692;9.400;2023-01-30T07:37:34;97380.31;;;-2.62;100.00
28927;BME280;16038;47.692;9.400;2023-01-30T07:39:59;97393.72;;;-2.67;100.00
28927;BME280;16038;47.692;9.400;2023-01-30T07:42:24;97381.63;;;-2.65;100.00
28927;BME280;16038;47.692;9.400;2023-01-30T07:44:49;97381.91;;;-2.61;100.00
28927;BME280;16038;47.692;9.400;2023-01-30T07:47:15;97368.78;;;-2.68;100.00
28927;BME280;16038;47.692;9.400;2023-01-30T07:49:43;97365.31;;;-2.58;100.00
28927;BME280;16038;47.692;9.400;2023-01-30T07:52:08;97369.34;;;-2.51;100.00
28927;BME280;16038;47.692;9.400;2023-01-30T07:54:34;97361.31;;;-2.40;100.00
28927;BME280;16038;47.692;9.400;2023-01-30T07:56:59;97344.41;;;-2.31;100.00
28927;BME280;16038;47.692;9.400;2023-01-30T07:59:24;97334.78;;;-2.26;100.00
28927;BME280;16038;47.692;9.400;2023-01-30T08:01:50;97317.31;;;-2.39;100.00
28927;BME280;16038;47.692;9.400;2023-01-30T08:04:15;97321.06;;;-2.35;100.00
28927;BME280;16038;47.692;9.400;2023-01-30T08:06:40;97337.44;;;-2.11;100.00
28927;BME280;16038;47.692;9.400;2023-01-30T08:09:06;97349.25;;;-1.81;100.00
28927;BME280;16038;47.692;9.400;2023-01-30T08:11:31;97346.03;;;-1.78;100.00
28927;BME280;16038;47.692;9.400;2023-01-30T08:13:57;97359.16;;;-1.71;100.00
28927;BME280;16038;47.692;9.400;2023-01-30T08:16:22;97358.56;;;-1.38;100.00
28927;BME280;16038;47.692;9.400;2023-01-30T08:18:47;97364.53;;;-0.81;98.04
28927;BME280;16038;47.692;9.400;2023-01-30T08:21:12;97371.00;;;0.03;91.17
28927;BME280;16038;47.692;9.400;2023-01-30T08:23:38;97369.50;;;-0.14;91.81
28927;BME280;16038;47.692;9.400;2023-01-30T08:26:03;97372.56;;;0.09;90.92
28927;BME280;16038;47.692;9.400;2023-01-30T08:28:29;97375.47;;;0.12;91.85
28927;BME280;16038;47.692;9.400;2023-01-30T08:30:55;97369.34;;;0.36;88.04
28927;BME280;16038;47.692;9.400;2023-01-30T08:33:20;97373.53;;;0.52;86.64
28927;BME280;16038;47.692;9.400;2023-01-30T08:35:46;97373.38;;;0.09;88.00
28927;BME280;16038;47.692;9.400;2023-01-30T08:38:11;97376.72;;;-0.09;88.49
28927;BME280;16038;47.692;9.400;2023-01-30T08:40:37;97372.75;;;-0.17;88.22
28927;BME280;16038;47.692;9.400;2023-01-30T08:43:03;97386.19;;;0.23;88.25
28927;BME280;16038;47.692;9.400;2023-01-30T08:45:29;97392.09;;;0.25;85.35
28927;BME280;16038;47.692;9.400;2023-01-30T08:48:02;97395.63;;;-0.14;88.08
28927;BME280;16038;47.692;9.400;2023-01-30T08:50:28;97396.50;;;-0.24;87.58
28927;BME280;16038;47.692;9.400;2023-01-30T08:52:53;97386.44;;;-0.53;89.10
28927;BME280;16038;47.692;9.400;2023-01-30T08:55:18;97386.72;;;-0.60;90.62
28927;BME280;16038;47.692;9.400;2023-01-30T08:57:45;97377.41;;;-0.78;91.33
28927;BME280;16038;47.692;9.400;2023-01-30T09:00:10;97370.94;;;-0.71;91.10
28927;BME280;16038;47.692;9.400;2023-01-30T09:02:36;97372.22;;;-0.19;88.18
28927;BME280;16038;47.692;9.400;2023-01-30T09:05:01;97370.91;;;-0.22;88.27
28927;BME280;16038;47.692;9.400;2023-01-30T09:07:27;97378.41;;;-0.18;87.52
28927;BME280;16038;47.692;9.400;2023-01-30T09:09:53;97399.78;;;-0.32;89.24
28927;BME280;16038;47.692;9.400;2023-01-30T09:12:18;97408.88;;;-0.23;88.41
28927;BME280;16038;47.692;9.400;2023-01-30T09:14:43;97405.34;;;-0.18;89.47
28927;BME280;16038;47.692;9.400;2023-01-30T09:17:09;97405.53;;;-0.05;88.65
28927;BME280;16038;47.692;9.400;2023-01-30T09:19:34;97409.09;;;-0.14;88.34
28927;BME280;16038;47.692;9.400;2023-01-30T09:22:01;97414.34;;;-0.39;87.80
28927;BME280;16038;47.692;9.400;2023-01-30T09:24:26;97402.81;;;-0.44;88.88
28927;BME280;16038;47.692;9.400;2023-01-30T09:26:52;97398.88;;;-0.67;90.17
28927;BME280;16038;47.692;9.400;2023-01-30T09:29:18;97398.84;;;-0.57;90.01
28927;BME280;16038;47.692;9.400;2023-01-30T09:31:43;97401.44;;;-0.42;90.08
28927;BME280;16038;47.692;9.400;2023-01-30T09:34:08;97406.22;;;0.11;87.69
28927;BME280;16038;47.692;9.400;2023-01-30T09:36:34;97413.50;;;0.45;84.31
28927;BME280;16038;47.692;9.400;2023-01-30T09:38:59;97426.03;;;1.32;82.87
28927;BME280;16038;47.692;9.400;2023-01-30T09:41:28;97417.94;;;1.76;77.26
28927;BME280;16038;47.692;9.400;2023-01-30T09:47:03;97408.16;;;1.61;76.68
28927;BME280;16038;47.692;9.400;2023-01-30T09:52:30;97418.31;;;2.40;75.16
28927;BME280;16038;47.692;9.400;2023-01-30T09:55:02;97409.56;;;2.29;73.87
28927;BME280;16038;47.692;9.400;2023-01-30T09:57:38;97395.78;;;2.12;75.27
28927;BME280;16038;47.692;9.400;2023-01-30T10:00:05;97396.41;;;2.55;73.09
28927;BME280;16038;47.692;9.400;2023-01-30T10:05:20;97396.75;;;3.64;67.54
28927;BME280;16038;47.692;9.400;2023-01-30T10:07:53;97397.25;;;4.26;65.12
28927;BME280;16038;47.692;9.400;2023-01-30T10:25:43;97370.44;;;3.01;68.94
28927;BME280;16038;47.692;9.400;2023-01-30T10:30:43;97367.38;;;2.47;70.29
28927;BME280;16038;47.692;9.400;2023-01-30T10:33:14;97382.16;;;2.36;71.72
28927;BME280;16038;47.692;9.400;2023-01-30T10:35:42;97372.19;;;2.64;70.29
28927;BME280;16038;47.692;9.400;2023-01-30T10:43:26;97365.97;;;2.49;69.80
28927;BME280;16038;47.692;9.400;2023-01-30T10:45:57;97364.69;;;2.75;69.86
28927;BME280;16038;47.692;9.400;2023-01-30T10:48:37;97356.19;;;2.67;69.96
28927;BME280;16038;47.692;9.400;2023-01-30T10:51:14;97346.00;;;2.32;71.52
28927;BME280;16038;47.692;9.400;2023-01-30T10:53:47;97317.63;;;2.15;71.94
28927;BME280;16038;47.692;9.400;2023-01-30T10:56:34;97293.03;;;3.00;69.94
28927;BME280;16038;47.692;9.400;2023-01-30T10:59:08;97282.81;;;3.47;67.41
28927;BME280;16038;47.692;9.400;2023-01-30T11:01:42;97287.09;;;4.38;63.16
28927;BME280;16038;47.692;9.400;2023-01-30T11:04:18;97300.72;;;4.25;62.73
28927;BME280;16038;47.692;9.400;2023-01-30T11:06:47;97290.16;;;4.46;61.06
28927;BME280;16038;47.692;9.400;2023-01-30T11:09:13;97285.00;;;4.35;61.56
28927;BME280;16038;47.692;9.400;2023-01-30T11:11:47;97286.25;;;4.07;62.68
28927;BME280;16038;47.692;9.400;2023-01-30T11:14:13;97279.00;;;4.47;61.42
28927;BME280;16038;47.692;9.400;2023-01-30T11:19:09;97265.50;;;4.73;60.45
28927;BME280;16038;47.692;9.400;2023-01-30T11:21:35;97251.25;;;4.59;60.94
28927;BME280;16038;47.692;9.400;2023-01-30T11:24:04;97234.97;;;4.19;60.79
28927;BME280;16038;47.692;9.400;2023-01-30T11:26:35;97242.50;;;4.22;61.12
28927;BME280;16038;47.692;9.400;2023-01-30T11:32:02;97239.09;;;3.85;61.34
28927;BME280;16038;47.692;9.400;2023-01-30T11:34:28;97233.06;;;4.19;60.99
28927;BME280;16038;47.692;9.400;2023-01-30T11:36:53;97239.00;;;4.21;60.74
28927;BME280;16038;47.692;9.400;2023-01-30T11:39:36;97235.69;;;4.33;59.93
28927;BME280;16038;47.692;9.400;2023-01-30T11:42:01;97226.06;;;4.18;60.36
28927;BME280;16038;47.692;9.400;2023-01-30T11:46:57;97232.81;;;3.98;61.07
28927;BME280;16038;47.692;9.400;2023-01-30T11:49:24;97233.00;;;4.42;60.07
28927;BME280;16038;47.692;9.400;2023-01-30T11:51:52;97229.06;;;4.57;59.27
28927;BME280;16038;47.692;9.400;2023-01-30T11:54:19;97232.53;;;4.40;60.13
28927;BME280;16038;47.692;9.400;2023-01-30T11:56:48;97233.53;;;4.53;59.97
28927;BME280;16038;47.692;9.400;2023-01-30T11:59:32;97222.13;;;4.82;60.02
28927;BME280;16038;47.692;9.400;2023-01-30T12:02:46;97221.88;;;5.53;58.13
28927;BME280;16038;47.692;9.400;2023-01-30T12:04:48;97218.41;;;6.18;55.30
28927;BME280;16038;47.692;9.400;2023-01-30T12:07:16;97231.03;;;6.61;54.27
28927;BME280;16038;47.692;9.400;2023-01-30T12:09:44;97219.97;;;6.27;53.85
28927;BME280;16038;47.692;9.400;2023-01-30T12:14:53;97197.41;;;5.10;57.94
28927;BME280;16038;47.692;9.400;2023-01-30T12:17:27;97185.00;;;4.43;60.45
28927;BME280;16038;47.692;9.400;2023-01-30T12:24:58;97208.66;;;4.19;63.01
28927;BME280;16038;47.692;9.400;2023-01-30T12:27:30;97214.72;;;4.16;62.60
28927;BME280;16038;47.692;9.400;2023-01-30T12:32:27;97203.28;;;3.43;65.47
28927;BME280;16038;47.692;9.400;2023-01-30T12:34:54;97209.06;;;3.28;66.50
28927;BME280;16038;47.692;9.400;2023-01-30T12:39:59;97199.50;;;3.44;67.07
28927;BME280;16038;47.692;9.400;2023-01-30T12:42:51;97197.69;;;3.62;66.49
28927;BME280;16038;47.692;9.400;2023-01-30T12:45:22;97177.81;;;3.21;67.63
28927;BME280;16038;47.692;9.400;2023-01-30T12:53:08;97173.25;;;3.31;68.61
28927;BME280;16038;47.692;9.400;2023-01-30T12:58:26;97178.78;;;3.25;69.01
28927;BME280;16038;47.692;9.400;2023-01-30T13:01:18;97172.13;;;2.86;69.96
28927;BME280;16038;47.692;9.400;2023-01-30T13:11:57;97163.44;;;2.76;71.42
28927;BME280;16038;47.692;9.400;2023-01-30T13:22:00;97156.88;;;2.91;72.02
28927;BME280;16038;47.692;9.400;2023-01-30T13:26:59;97154.94;;;2.68;73.58
28927;BME280;16038;47.692;9.400;2023-01-30T13:31:53;97148.25;;;2.52;74.41
28927;BME280;16038;47.692;9.400;2023-01-30T13:34:28;97149.13;;;2.61;75.10
28927;BME280;16038;47.692;9.400;2023-01-30T13:36:57;97153.78;;;2.47;74.57
28927;BME280;16038;47.692;9.400;2023-01-30T13:39:34;97155.66;;;2.46;75.01
28927;BME280;16038;47.692;9.400;2023-01-30T13:42:01;97161.66;;;2.57;74.43
28927;BME280;16038;47.692;9.400;2023-01-30T13:44:30;97158.75;;;2.54;74.75
28927;BME280;16038;47.692;9.400;2023-01-30T13:46:58;97163.44;;;2.62;75.37
28927;BME280;16038;47.692;9.400;2023-01-30T13:49:28;97163.91;;;2.78;75.14
28927;BME280;16038;47.692;9.400;2023-01-30T13:52:03;97150.47;;;2.86;74.40
28927;BME280;16038;47.692;9.400;2023-01-30T14:02:30;97157.50;;;2.74;74.61
28927;BME280;16038;47.692;9.400;2023-01-30T14:04:56;97158.25;;;2.88;74.58
28927;BME280;16038;47.692;9.400;2023-01-30T14:07:23;97172.31;;;2.90;73.92
28927;BME280;16038;47.692;9.400;2023-01-30T14:10:10;97159.03;;;3.02;73.44
28927;BME280;16038;47.692;9.400;2023-01-30T14:12:39;97156.97;;;2.85;74.10
28927;BME280;16038;47.692;9.400;2023-01-30T14:17:38;97167.56;;;2.59;74.37
28927;BME280;16038;47.692;9.400;2023-01-30T14:20:04;97158.63;;;2.73;74.65
28927;BME280;16038;47.692;9.400;2023-01-30T14:22:51;97158.72;;;2.81;72.60
28927;BME280;16038;47.692;9.400;2023-01-30T14:27:47;97174.00;;;2.86;73.28
28927;BME280;16038;47.692;9.400;2023-01-30T14:32:58;97194.44;;;2.92;73.17
28927;BME280;16038;47.692;9.400;2023-01-30T14:35:25;97184.00;;;2.99;73.80
28927;BME280;16038;47.692;9.400;2023-01-30T14:37:51;97180.25;;;3.09;73.31
28927;BME280;16038;47.692;9.400;2023-01-30T14:40:28;97178.09;;;2.97;73.94
28927;BME280;16038;47.692;9.400;2023-01-30T14:54:02;97196.00;;;3.07;74.25
28927;BME280;16038;47.692;9.400;2023-01-30T15:04:19;97200.47;;;2.75;76.60
28927;BME280;16038;47.692;9.400;2023-01-30T15:06:45;97205.50;;;2.68;77.09
28927;BME280;16038;47.692;9.400;2023-01-30T15:09:16;97191.09;;;2.73;77.92
28927;BME280;16038;47.692;9.400;2023-01-30T15:11:41;97185.19;;;2.57;78.89
28927;BME280;16038;47.692;9.400;2023-01-30T15:14:13;97196.91;;;2.66;79.29
28927;BME280;16038;47.692;9.400;2023-01-30T15:16:50;97209.31;;;2.67;79.22
28927;BME280;16038;47.692;9.400;2023-01-30T15:31:52;97222.75;;;2.72;80.44
28927;BME280;16038;47.692;9.400;2023-01-30T15:34:20;97225.25;;;2.68;80.20
28927;BME280;16038;47.692;9.400;2023-01-30T15:36:46;97237.25;;;2.76;80.51
28927;BME280;16038;47.692;9.400;2023-01-30T15:39:17;97237.47;;;2.80;81.25
28927;BME280;16038;47.692;9.400;2023-01-30T15:41:42;97237.97;;;2.68;81.24
28927;BME280;16038;47.692;9.400;2023-01-30T15:49:37;97250.00;;;2.62;83.45
28927;BME280;16038;47.692;9.400;2023-01-30T15:52:08;97257.81;;;2.49;83.65
28927;BME280;16038;47.692;9.400;2023-01-30T15:54:35;97271.63;;;2.48;83.58
28927;BME280;16038;47.692;9.400;2023-01-30T15:57:00;97273.84;;;2.60;83.93
28927;BME280;16038;47.692;9.400;2023-01-30T15:59:33;97255.69;;;2.46;85.96
28927;BME280;16038;47.692;9.400;2023-01-30T16:02:04;97270.34;;;2.59;85.70
28927;BME280;16038;47.692;9.400;2023-01-30T16:04:30;97274.44;;;2.57;86.25